EAA221Q LHDC-LTBA
Flight info
| Callsign | EAA221Q |
|---|---|
| Flight time | 1h 22m |
| Altitude | 37000 |
| Route | NARKA DCT EMPOS DCT BULEN L742 RIXEN UL620 GINLI |
| Aircraft | B738/M-SDE2E3FGHIRWXY/LB1 |
Departure
| Time | 2026-04-25 21:53 |
|---|---|
| Airport | Debrecen International Airport (LHDC) |
Arrival
| Time | 2026-04-25 23:15 |
|---|---|
| Airport | İstanbul Atatürk Airport (LTBA) |
| Time | Latitude | Longitude | Altitude | Speed | Heading |
|---|---|---|---|---|---|
| 2026-04-25 21:50 | 47.49646 | 21.61752 | 368 ft | 11 kts | 56° |
| 2026-04-25 21:50 | 47.49692 | 21.61851 | 368 ft | 13 kts | 58° |
| 2026-04-25 21:50 | 47.49748 | 21.61967 | 368 ft | 15 kts | 61° |
| 2026-04-25 21:50 | 47.49782 | 21.62057 | 366 ft | 16 kts | 60° |
| 2026-04-25 21:51 | 47.49862 | 21.62259 | 366 ft | 19 kts | 58° |
| 2026-04-25 21:51 | 47.49888 | 21.62408 | 369 ft | 15 kts | 123° |
| 2026-04-25 21:51 | 47.49812 | 21.62521 | 373 ft | 16 kts | 134° |
| 2026-04-25 21:51 | 47.49725 | 21.62639 | 367 ft | 18 kts | 138° |
| 2026-04-25 21:52 | 47.49651 | 21.62717 | 369 ft | 12 kts | 165° |
| 2026-04-25 21:52 | 47.49558 | 21.62614 | 371 ft | 42 kts | 229° |
| 2026-04-25 21:52 | 47.49167 | 21.61977 | 366 ft | 123 kts | 228° |
| 2026-04-25 21:52 | 47.48448 | 21.60812 | 557 ft | 170 kts | 226° |
| 2026-04-25 21:53 | 47.47665 | 21.59297 | 1077 ft | 203 kts | 241° |
| 2026-04-25 21:53 | 47.47232 | 21.57257 | 1653 ft | 221 kts | 270° |
| 2026-04-25 21:53 | 47.47470 | 21.54918 | 2258 ft | 240 kts | 276° |
| 2026-04-25 21:53 | 47.47070 | 21.52429 | 2962 ft | 263 kts | 239° |
| 2026-04-25 21:54 | 47.45691 | 21.50700 | 4207 ft | 258 kts | 213° |
| 2026-04-25 21:54 | 47.44214 | 21.49380 | 5466 ft | 240 kts | 218° |
| 2026-04-25 21:54 | 47.42862 | 21.47869 | 6067 ft | 252 kts | 223° |
| 2026-04-25 21:54 | 47.41233 | 21.46577 | 6251 ft | 287 kts | 194° |
| 2026-04-25 21:55 | 47.39182 | 21.46830 | 6713 ft | 309 kts | 163° |
| 2026-04-25 21:55 | 47.37158 | 21.48013 | 7404 ft | 315 kts | 159° |
| 2026-04-25 21:55 | 47.35266 | 21.49706 | 8119 ft | 323 kts | 140° |
| 2026-04-25 21:55 | 47.33843 | 21.52295 | 8842 ft | 330 kts | 117° |
| 2026-04-25 21:56 | 47.33220 | 21.55551 | 9541 ft | 333 kts | 90° |
| 2026-04-25 21:56 | 47.33298 | 21.57804 | 10024 ft | 333 kts | 80° |
| 2026-04-25 21:56 | 47.33828 | 21.62321 | 10923 ft | 337 kts | 77° |
| 2026-04-25 21:56 | 47.34230 | 21.65749 | 11588 ft | 341 kts | 78° |
| 2026-04-25 21:57 | 47.34469 | 21.69252 | 12243 ft | 348 kts | 93° |
| 2026-04-25 21:57 | 47.34149 | 21.71569 | 12672 ft | 351 kts | 111° |
| 2026-04-25 21:57 | 47.32365 | 21.75495 | 13629 ft | 350 kts | 137° |
| 2026-04-25 21:57 | 47.30592 | 21.77974 | 14235 ft | 353 kts | 139° |
| 2026-04-25 21:58 | 47.28771 | 21.80453 | 14775 ft | 359 kts | 139° |
| 2026-04-25 21:58 | 47.26937 | 21.82992 | 15360 ft | 363 kts | 139° |
| 2026-04-25 21:58 | 47.25697 | 21.84729 | 15759 ft | 366 kts | 139° |
| 2026-04-25 21:58 | 47.23865 | 21.87291 | 16338 ft | 370 kts | 140° |
| 2026-04-25 21:59 | 47.21958 | 21.89863 | 16907 ft | 373 kts | 140° |
| 2026-04-25 21:59 | 47.20015 | 21.92437 | 17476 ft | 378 kts | 141° |
| 2026-04-25 21:59 | 47.18054 | 21.95021 | 18037 ft | 382 kts | 141° |
| 2026-04-25 22:00 | 47.14061 | 22.00282 | 19091 ft | 388 kts | 141° |
| 2026-04-25 22:00 | 47.12045 | 22.02942 | 19609 ft | 391 kts | 141° |
| 2026-04-25 22:00 | 47.10019 | 22.05617 | 20123 ft | 393 kts | 141° |
| 2026-04-25 22:00 | 47.07975 | 22.08315 | 20630 ft | 396 kts | 141° |
| 2026-04-25 22:01 | 47.05919 | 22.11028 | 21130 ft | 399 kts | 141° |
| 2026-04-25 22:01 | 47.03847 | 22.13759 | 21625 ft | 402 kts | 141° |
| 2026-04-25 22:01 | 47.01754 | 22.16516 | 22116 ft | 405 kts | 141° |
| 2026-04-25 22:01 | 47.00364 | 22.18344 | 22443 ft | 407 kts | 141° |
| 2026-04-25 22:02 | 46.97530 | 22.22070 | 23080 ft | 411 kts | 141° |
| 2026-04-25 22:02 | 46.95392 | 22.24877 | 23546 ft | 414 kts | 142° |
| 2026-04-25 22:02 | 46.93242 | 22.27696 | 23937 ft | 416 kts | 142° |
| 2026-04-25 22:02 | 46.91075 | 22.30534 | 24319 ft | 419 kts | 142° |
| 2026-04-25 22:03 | 46.88897 | 22.33382 | 24682 ft | 422 kts | 142° |
| 2026-04-25 22:03 | 46.86700 | 22.36254 | 25074 ft | 425 kts | 142° |
| 2026-04-25 22:03 | 46.84493 | 22.39135 | 25437 ft | 427 kts | 142° |
| 2026-04-25 22:03 | 46.82267 | 22.42039 | 25815 ft | 430 kts | 142° |
| 2026-04-25 22:04 | 46.80059 | 22.44914 | 26188 ft | 432 kts | 142° |
| 2026-04-25 22:04 | 46.77791 | 22.47866 | 26666 ft | 431 kts | 142° |
| 2026-04-25 22:04 | 46.75588 | 22.50731 | 27156 ft | 429 kts | 142° |
| 2026-04-25 22:04 | 46.73369 | 22.53614 | 27660 ft | 427 kts | 142° |
| 2026-04-25 22:05 | 46.71146 | 22.56496 | 28130 ft | 426 kts | 142° |
| 2026-04-25 22:05 | 46.68925 | 22.59372 | 28553 ft | 427 kts | 142° |
| 2026-04-25 22:05 | 46.66705 | 22.62244 | 28986 ft | 427 kts | 142° |
| 2026-04-25 22:05 | 46.64490 | 22.65105 | 29452 ft | 426 kts | 142° |
| 2026-04-25 22:06 | 46.62272 | 22.67966 | 29894 ft | 425 kts | 142° |
| 2026-04-25 22:06 | 46.60064 | 22.70814 | 30281 ft | 424 kts | 142° |
| 2026-04-25 22:06 | 46.57851 | 22.73662 | 30582 ft | 425 kts | 142° |
| 2026-04-25 22:06 | 46.55638 | 22.76508 | 30878 ft | 426 kts | 142° |
| 2026-04-25 22:07 | 46.51886 | 22.81319 | 31000 ft | 439 kts | 142° |
| 2026-04-25 22:07 | 46.46439 | 22.88291 | 31167 ft | 455 kts | 142° |
| 2026-04-25 22:08 | 46.41624 | 22.94441 | 31294 ft | 467 kts | 142° |
| 2026-04-25 22:08 | 46.36679 | 23.00745 | 31417 ft | 479 kts | 142° |
| 2026-04-25 22:09 | 46.31612 | 23.07188 | 31511 ft | 490 kts | 141° |
| 2026-04-25 22:09 | 46.26465 | 23.13716 | 31598 ft | 500 kts | 141° |
| 2026-04-25 22:10 | 46.21186 | 23.20394 | 31813 ft | 506 kts | 141° |
| 2026-04-25 22:10 | 46.18530 | 23.23747 | 32081 ft | 505 kts | 141° |
| 2026-04-25 22:10 | 46.15892 | 23.27076 | 32379 ft | 503 kts | 141° |
| 2026-04-25 22:11 | 46.13249 | 23.30405 | 32618 ft | 503 kts | 141° |
| 2026-04-25 22:11 | 46.10612 | 23.33720 | 32814 ft | 503 kts | 141° |
| 2026-04-25 22:11 | 46.07970 | 23.37037 | 33025 ft | 504 kts | 141° |
| 2026-04-25 22:11 | 46.05329 | 23.40349 | 33254 ft | 503 kts | 141° |
| 2026-04-25 22:12 | 46.02692 | 23.43651 | 33495 ft | 502 kts | 141° |
| 2026-04-25 22:12 | 46.00054 | 23.46950 | 33729 ft | 502 kts | 141° |
| 2026-04-25 22:12 | 45.97418 | 23.50242 | 33935 ft | 502 kts | 141° |
| 2026-04-25 22:12 | 45.95670 | 23.52423 | 34054 ft | 502 kts | 141° |
| 2026-04-25 22:13 | 45.92178 | 23.56773 | 34322 ft | 501 kts | 141° |
| 2026-04-25 22:13 | 45.89546 | 23.60047 | 34569 ft | 499 kts | 141° |
| 2026-04-25 22:13 | 45.86945 | 23.63280 | 35022 ft | 490 kts | 141° |
| 2026-04-25 22:13 | 45.84376 | 23.66469 | 34957 ft | 484 kts | 141° |
| 2026-04-25 22:14 | 45.79337 | 23.72707 | 34997 ft | 477 kts | 141° |
| 2026-04-25 22:14 | 45.74118 | 23.78530 | 34996 ft | 473 kts | 145° |
| 2026-04-25 22:15 | 45.68815 | 23.84085 | 34987 ft | 472 kts | 146° |
| 2026-04-25 22:16 | 45.60925 | 23.92365 | 34984 ft | 471 kts | 145° |
| 2026-04-25 22:16 | 45.55668 | 23.97924 | 34997 ft | 470 kts | 145° |
| 2026-04-25 22:17 | 45.50404 | 24.03490 | 35014 ft | 471 kts | 145° |
| 2026-04-25 22:17 | 45.45128 | 24.09057 | 35016 ft | 472 kts | 145° |
| 2026-04-25 22:18 | 45.39841 | 24.14619 | 35020 ft | 472 kts | 145° |
| 2026-04-25 22:18 | 45.34569 | 24.20153 | 35008 ft | 473 kts | 145° |
| 2026-04-25 22:19 | 45.29266 | 24.25705 | 35014 ft | 474 kts | 145° |
| 2026-04-25 22:19 | 45.23955 | 24.31252 | 35011 ft | 474 kts | 145° |
| 2026-04-25 22:20 | 45.18659 | 24.36771 | 35016 ft | 474 kts | 145° |
| 2026-04-25 22:20 | 45.13337 | 24.42302 | 35010 ft | 475 kts | 145° |
| 2026-04-25 22:21 | 45.08011 | 24.47826 | 35001 ft | 475 kts | 145° |
| 2026-04-25 22:21 | 45.02673 | 24.53350 | 34997 ft | 475 kts | 145° |
| 2026-04-25 22:22 | 44.97344 | 24.58850 | 34989 ft | 474 kts | 145° |
| 2026-04-25 22:22 | 44.92046 | 24.64306 | 34987 ft | 473 kts | 145° |
| 2026-04-25 22:23 | 44.86728 | 24.69770 | 34989 ft | 472 kts | 145° |
| 2026-04-25 22:23 | 44.81424 | 24.75207 | 34983 ft | 471 kts | 144° |
| 2026-04-25 22:24 | 44.76133 | 24.80617 | 34980 ft | 469 kts | 144° |
| 2026-04-25 22:24 | 44.70848 | 24.86010 | 34977 ft | 468 kts | 144° |
| 2026-04-25 22:25 | 44.65582 | 24.91370 | 34978 ft | 467 kts | 144° |
| 2026-04-25 22:25 | 44.60317 | 24.96716 | 34971 ft | 466 kts | 144° |
| 2026-04-25 22:26 | 44.55096 | 25.02007 | 34974 ft | 465 kts | 144° |
| 2026-04-25 22:26 | 44.49849 | 25.07312 | 34971 ft | 465 kts | 144° |
| 2026-04-25 22:27 | 44.44593 | 25.12613 | 34974 ft | 465 kts | 144° |
| 2026-04-25 22:27 | 44.39337 | 25.17903 | 34968 ft | 465 kts | 144° |
| 2026-04-25 22:28 | 44.34084 | 25.23177 | 34976 ft | 465 kts | 144° |
| 2026-04-25 22:28 | 44.28825 | 25.28446 | 34973 ft | 465 kts | 144° |
| 2026-04-25 22:29 | 44.23558 | 25.33711 | 34969 ft | 465 kts | 144° |
| 2026-04-25 22:29 | 44.18323 | 25.38933 | 34967 ft | 466 kts | 144° |
| 2026-04-25 22:30 | 44.10415 | 25.46797 | 34968 ft | 466 kts | 144° |
| 2026-04-25 22:30 | 44.05997 | 25.51180 | 34968 ft | 465 kts | 144° |
| 2026-04-25 22:31 | 43.99862 | 25.57253 | 34970 ft | 465 kts | 144° |
| 2026-04-25 22:31 | 43.94592 | 25.62457 | 34970 ft | 465 kts | 144° |
| 2026-04-25 22:32 | 43.89321 | 25.67649 | 34972 ft | 464 kts | 144° |
| 2026-04-25 22:32 | 43.84052 | 25.72829 | 34976 ft | 464 kts | 144° |
| 2026-04-25 22:33 | 43.78785 | 25.77996 | 34975 ft | 463 kts | 144° |
| 2026-04-25 22:33 | 43.73730 | 25.83393 | 34974 ft | 461 kts | 133° |
| 2026-04-25 22:34 | 43.69364 | 25.89891 | 34988 ft | 460 kts | 130° |
| 2026-04-25 22:34 | 43.65062 | 25.96443 | 34994 ft | 460 kts | 131° |
| 2026-04-25 22:35 | 43.60727 | 26.02947 | 34996 ft | 459 kts | 131° |
| 2026-04-25 22:35 | 43.56400 | 26.09365 | 34997 ft | 459 kts | 131° |
| 2026-04-25 22:36 | 43.52040 | 26.15804 | 35000 ft | 459 kts | 131° |
| 2026-04-25 22:36 | 43.47682 | 26.22228 | 35004 ft | 458 kts | 131° |
| 2026-04-25 22:37 | 43.43328 | 26.28634 | 35001 ft | 458 kts | 131° |
| 2026-04-25 22:37 | 43.38975 | 26.35024 | 35008 ft | 457 kts | 131° |
| 2026-04-25 22:38 | 43.34652 | 26.41356 | 35006 ft | 457 kts | 131° |
| 2026-04-25 22:38 | 43.30302 | 26.47713 | 35009 ft | 456 kts | 131° |
| 2026-04-25 22:39 | 43.25938 | 26.54077 | 35009 ft | 456 kts | 131° |
| 2026-04-25 22:39 | 43.21585 | 26.60411 | 35011 ft | 455 kts | 131° |
| 2026-04-25 22:40 | 43.17262 | 26.66674 | 35008 ft | 455 kts | 132° |
| 2026-04-25 22:40 | 43.12865 | 26.72918 | 35005 ft | 455 kts | 132° |
| 2026-04-25 22:41 | 43.08458 | 26.79153 | 35006 ft | 454 kts | 132° |
| 2026-04-25 22:41 | 43.04077 | 26.85355 | 35012 ft | 453 kts | 132° |
| 2026-04-25 22:42 | 42.99763 | 26.91621 | 35010 ft | 452 kts | 130° |
| 2026-04-25 22:42 | 42.95597 | 26.98041 | 35001 ft | 451 kts | 129° |
| 2026-04-25 22:43 | 42.91434 | 27.04454 | 35005 ft | 451 kts | 130° |
| 2026-04-25 22:43 | 42.87252 | 27.10826 | 34999 ft | 450 kts | 130° |
| 2026-04-25 22:44 | 42.83061 | 27.17175 | 35008 ft | 450 kts | 130° |
| 2026-04-25 22:44 | 42.78871 | 27.23505 | 35019 ft | 450 kts | 130° |
| 2026-04-25 22:45 | 42.75388 | 27.28759 | 35012 ft | 450 kts | 130° |
| 2026-04-25 22:45 | 42.71195 | 27.35071 | 35013 ft | 449 kts | 130° |
| 2026-04-25 22:46 | 42.66324 | 27.42386 | 35018 ft | 449 kts | 130° |
| 2026-04-25 22:46 | 42.62829 | 27.47625 | 35008 ft | 449 kts | 130° |
| 2026-04-25 22:47 | 42.58686 | 27.53945 | 35008 ft | 447 kts | 125° |
| 2026-04-25 22:47 | 42.55392 | 27.61047 | 35013 ft | 445 kts | 118° |
| 2026-04-25 22:48 | 42.52279 | 27.68306 | 35015 ft | 445 kts | 118° |
| 2026-04-25 22:48 | 42.49149 | 27.75471 | 34994 ft | 433 kts | 118° |
| 2026-04-25 22:49 | 42.47628 | 27.78908 | 34993 ft | 418 kts | 118° |
| 2026-04-25 22:49 | 42.46148 | 27.82241 | 35000 ft | 410 kts | 118° |
| 2026-04-25 22:49 | 42.43220 | 27.88841 | 35017 ft | 408 kts | 118° |
| 2026-04-25 22:50 | 42.40291 | 27.95428 | 35019 ft | 408 kts | 118° |
| 2026-04-25 22:50 | 42.37499 | 28.02107 | 35019 ft | 407 kts | 115° |
| 2026-04-25 22:51 | 42.34909 | 28.08844 | 34639 ft | 399 kts | 115° |
| 2026-04-25 22:51 | 42.33643 | 28.12145 | 34148 ft | 401 kts | 115° |
| 2026-04-25 22:51 | 42.32346 | 28.15505 | 33535 ft | 404 kts | 115° |
| 2026-04-25 22:52 | 42.31034 | 28.18883 | 32917 ft | 407 kts | 115° |
| 2026-04-25 22:52 | 42.29709 | 28.22277 | 32302 ft | 410 kts | 115° |
| 2026-04-25 22:52 | 42.28370 | 28.25693 | 31724 ft | 412 kts | 115° |
| 2026-04-25 22:52 | 42.27023 | 28.29120 | 31187 ft | 413 kts | 115° |
| 2026-04-25 22:53 | 42.25675 | 28.32547 | 30685 ft | 414 kts | 115° |
| 2026-04-25 22:53 | 42.24321 | 28.35982 | 30152 ft | 415 kts | 115° |
| 2026-04-25 22:53 | 42.22959 | 28.39435 | 29502 ft | 416 kts | 115° |
| 2026-04-25 22:53 | 42.21597 | 28.42885 | 28856 ft | 418 kts | 115° |
| 2026-04-25 22:54 | 42.20228 | 28.46349 | 28192 ft | 419 kts | 115° |
| 2026-04-25 22:54 | 42.18851 | 28.49829 | 27519 ft | 421 kts | 115° |
| 2026-04-25 22:54 | 42.17483 | 28.53281 | 26860 ft | 423 kts | 116° |
| 2026-04-25 22:54 | 42.16092 | 28.56788 | 26204 ft | 424 kts | 116° |
| 2026-04-25 22:55 | 42.14693 | 28.60307 | 25586 ft | 425 kts | 116° |
| 2026-04-25 22:55 | 42.13294 | 28.63826 | 25097 ft | 423 kts | 116° |
| 2026-04-25 22:55 | 42.11913 | 28.67295 | 24669 ft | 419 kts | 116° |
| 2026-04-25 22:55 | 42.10536 | 28.70734 | 24235 ft | 416 kts | 118° |
| 2026-04-25 22:56 | 42.08740 | 28.73777 | 23714 ft | 419 kts | 138° |
| 2026-04-25 22:56 | 42.06288 | 28.75875 | 23034 ft | 421 kts | 155° |
| 2026-04-25 22:56 | 42.03460 | 28.76902 | 22028 ft | 431 kts | 175° |
| 2026-04-25 22:56 | 42.00449 | 28.77068 | 21120 ft | 436 kts | 179° |
| 2026-04-25 22:57 | 41.97390 | 28.77110 | 20198 ft | 442 kts | 179° |
| 2026-04-25 22:57 | 41.94301 | 28.77152 | 19304 ft | 446 kts | 179° |
| 2026-04-25 22:57 | 41.91180 | 28.77237 | 18428 ft | 449 kts | 178° |
| 2026-04-25 22:57 | 41.88043 | 28.77353 | 17454 ft | 451 kts | 178° |
| 2026-04-25 22:58 | 41.84913 | 28.77484 | 16964 ft | 443 kts | 178° |
| 2026-04-25 22:58 | 41.81895 | 28.77619 | 16856 ft | 425 kts | 178° |
| 2026-04-25 22:58 | 41.78996 | 28.77641 | 16732 ft | 409 kts | 185° |
| 2026-04-25 22:58 | 41.76262 | 28.76976 | 16640 ft | 393 kts | 197° |
| 2026-04-25 22:59 | 41.73738 | 28.75731 | 16532 ft | 379 kts | 206° |
| 2026-04-25 22:59 | 41.71478 | 28.73999 | 16231 ft | 372 kts | 213° |
| 2026-04-25 22:59 | 41.69301 | 28.72152 | 15777 ft | 370 kts | 213° |
| 2026-04-25 22:59 | 41.67133 | 28.70302 | 15338 ft | 368 kts | 213° |
| 2026-04-25 23:00 | 41.64977 | 28.68473 | 14941 ft | 365 kts | 213° |
| 2026-04-25 23:00 | 41.62835 | 28.66670 | 14556 ft | 362 kts | 213° |
| 2026-04-25 23:00 | 41.60721 | 28.64901 | 14391 ft | 352 kts | 213° |
| 2026-04-25 23:00 | 41.58679 | 28.63198 | 14312 ft | 341 kts | 213° |
| 2026-04-25 23:01 | 41.56698 | 28.61548 | 14232 ft | 329 kts | 213° |
| 2026-04-25 23:01 | 41.54807 | 28.59975 | 14172 ft | 319 kts | 213° |
| 2026-04-25 23:01 | 41.52933 | 28.58417 | 14093 ft | 308 kts | 213° |
| 2026-04-25 23:01 | 41.51167 | 28.56953 | 14028 ft | 298 kts | 213° |
| 2026-04-25 23:02 | 41.49436 | 28.55517 | 13940 ft | 289 kts | 213° |
| 2026-04-25 23:02 | 41.47699 | 28.54077 | 13283 ft | 300 kts | 213° |
| 2026-04-25 23:02 | 41.45893 | 28.52581 | 12671 ft | 310 kts | 213° |
| 2026-04-25 23:02 | 41.44035 | 28.51043 | 12035 ft | 318 kts | 213° |
| 2026-04-25 23:03 | 41.42131 | 28.49467 | 11413 ft | 326 kts | 213° |
| 2026-04-25 23:03 | 41.40177 | 28.47852 | 10811 ft | 333 kts | 212° |
| 2026-04-25 23:03 | 41.38191 | 28.46211 | 10218 ft | 339 kts | 212° |
| 2026-04-25 23:03 | 41.36172 | 28.44543 | 9585 ft | 344 kts | 212° |
| 2026-04-25 23:04 | 41.34126 | 28.42854 | 8930 ft | 348 kts | 212° |
| 2026-04-25 23:04 | 41.32760 | 28.41726 | 8504 ft | 350 kts | 212° |
| 2026-04-25 23:04 | 41.29973 | 28.39429 | 7656 ft | 354 kts | 212° |
| 2026-04-25 23:04 | 41.27876 | 28.37704 | 7030 ft | 356 kts | 212° |
| 2026-04-25 23:05 | 41.25745 | 28.36101 | 6408 ft | 357 kts | 201° |
| 2026-04-25 23:05 | 41.23325 | 28.35493 | 5761 ft | 356 kts | 178° |
| 2026-04-25 23:05 | 41.20904 | 28.36063 | 5135 ft | 354 kts | 159° |
| 2026-04-25 23:05 | 41.18653 | 28.37361 | 4526 ft | 353 kts | 154° |
| 2026-04-25 23:06 | 41.16443 | 28.38723 | 4120 ft | 346 kts | 154° |
| 2026-04-25 23:06 | 41.14293 | 28.40055 | 3808 ft | 337 kts | 154° |
| 2026-04-25 23:06 | 41.12196 | 28.41345 | 3497 ft | 328 kts | 155° |
| 2026-04-25 23:06 | 41.10177 | 28.42577 | 3224 ft | 307 kts | 155° |
| 2026-04-25 23:07 | 41.08314 | 28.43705 | 3031 ft | 281 kts | 155° |
| 2026-04-25 23:07 | 41.06623 | 28.44724 | 2992 ft | 253 kts | 155° |
| 2026-04-25 23:07 | 41.05096 | 28.45643 | 2978 ft | 228 kts | 155° |
| 2026-04-25 23:07 | 41.03709 | 28.46475 | 2984 ft | 211 kts | 155° |
| 2026-04-25 23:08 | 41.02397 | 28.47263 | 2999 ft | 209 kts | 155° |
| 2026-04-25 23:08 | 41.01071 | 28.48058 | 3012 ft | 210 kts | 155° |
| 2026-04-25 23:08 | 40.99735 | 28.48859 | 3019 ft | 212 kts | 155° |
| 2026-04-25 23:08 | 40.98389 | 28.49665 | 3017 ft | 213 kts | 155° |
| 2026-04-25 23:09 | 40.97036 | 28.50473 | 3008 ft | 213 kts | 155° |
| 2026-04-25 23:09 | 40.95685 | 28.51281 | 3009 ft | 213 kts | 155° |
| 2026-04-25 23:09 | 40.94334 | 28.52088 | 3001 ft | 212 kts | 154° |
| 2026-04-25 23:09 | 40.92991 | 28.52890 | 3000 ft | 211 kts | 154° |
| 2026-04-25 23:10 | 40.91650 | 28.53690 | 3003 ft | 211 kts | 154° |
| 2026-04-25 23:10 | 40.90313 | 28.54488 | 3005 ft | 210 kts | 154° |
| 2026-04-25 23:10 | 40.88981 | 28.55282 | 3000 ft | 210 kts | 154° |
| 2026-04-25 23:10 | 40.87696 | 28.56166 | 2987 ft | 208 kts | 137° |
| 2026-04-25 23:11 | 40.86922 | 28.57713 | 3008 ft | 202 kts | 104° |
| 2026-04-25 23:11 | 40.86852 | 28.59548 | 3006 ft | 201 kts | 77° |
| 2026-04-25 23:11 | 40.87386 | 28.61255 | 3011 ft | 202 kts | 60° |
| 2026-04-25 23:11 | 40.88100 | 28.62847 | 3007 ft | 205 kts | 58° |
| 2026-04-25 23:12 | 40.88846 | 28.64444 | 2992 ft | 200 kts | 58° |
| 2026-04-25 23:12 | 40.89553 | 28.65942 | 2962 ft | 185 kts | 57° |
| 2026-04-25 23:12 | 40.90219 | 28.67352 | 2999 ft | 180 kts | 57° |
| 2026-04-25 23:12 | 40.90890 | 28.68783 | 3006 ft | 181 kts | 58° |
| 2026-04-25 23:13 | 40.91532 | 28.70158 | 2963 ft | 170 kts | 58° |
| 2026-04-25 23:13 | 40.92123 | 28.71458 | 2769 ft | 163 kts | 57° |
| 2026-04-25 23:13 | 40.92754 | 28.72674 | 2571 ft | 160 kts | 56° |
| 2026-04-25 23:13 | 40.93381 | 28.73927 | 2390 ft | 166 kts | 56° |
| 2026-04-25 23:14 | 40.94006 | 28.75212 | 2183 ft | 166 kts | 59° |
| 2026-04-25 23:14 | 40.94605 | 28.76523 | 1858 ft | 166 kts | 58° |
| 2026-04-25 23:14 | 40.95174 | 28.77843 | 1445 ft | 169 kts | 60° |
| 2026-04-25 23:14 | 40.95766 | 28.79228 | 907 ft | 179 kts | 59° |
| 2026-04-25 23:15 | 40.96412 | 28.80651 | 534 ft | 178 kts | 58° |
| 2026-04-25 23:15 | 40.97039 | 28.82025 | 171 ft | 171 kts | 55° |
| 2026-04-25 23:15 | 40.97527 | 28.83050 | 99 ft | 60 kts | 59° |
| 2026-04-25 23:15 | 40.97570 | 28.83145 | 101 ft | 0 kts | 58° |
| 2026-04-25 23:16 | 40.97599 | 28.83205 | 98 ft | 27 kts | 56° |
| 2026-04-25 23:16 | 40.97686 | 28.83383 | 99 ft | 24 kts | 58° |
| 2026-04-25 23:16 | 40.97691 | 28.83596 | 98 ft | 19 kts | 152° |
| 2026-04-25 23:16 | 40.97524 | 28.83486 | 99 ft | 32 kts | 233° |
| 2026-04-25 23:17 | 40.97397 | 28.83251 | 99 ft | 22 kts | 210° |
| 2026-04-25 23:17 | 40.97278 | 28.83127 | 100 ft | 17 kts | 216° |
| 2026-04-25 23:17 | 40.97264 | 28.83120 | 100 ft | 0 kts | 172° |